Time;durP1;ratioP1;P1;durP2;ratioP2;P2;SDS_P1;SDS_P2;PMS_P1;PMS_P2;Temp;Humidity;BMP_temperature;BMP_pressure;BME280_temperature;BME280_humidity;BME280_pressure;Samples;Min_cycle;Max_cycle;Signal;HPM_P1;HPM_P2
2023/05/17 00:01:33;;;;;;;0.70;0.70;;;8.40;99.90;;;;;;5054074;28;20267;-72
2023/05/17 00:03:59;;;;;;;0.60;0.60;;;8.40;99.90;;;;;;5054207;28;20312;-72
2023/05/17 00:06:25;;;;;;;0.68;0.68;;;8.30;99.90;;;;;;5054109;28;20205;-71
2023/05/17 00:08:51;;;;;;;0.70;0.70;;;8.30;99.90;;;;;;5054786;28;20763;-72
2023/05/17 00:11:17;;;;;;;0.70;0.70;;;8.20;99.90;;;;;;5054257;28;20189;-71
2023/05/17 00:13:42;;;;;;;0.70;0.70;;;8.10;99.90;;;;;;5053979;28;20189;-71
2023/05/17 00:16:08;;;;;;;0.60;0.60;;;8.10;99.90;;;;;;5054314;28;20312;-72
2023/05/17 00:18:34;;;;;;;0.70;0.70;;;8.00;99.90;;;;;;5053514;28;20196;-71
2023/05/17 00:20:59;;;;;;;0.70;0.70;;;8.00;99.90;;;;;;5053913;28;20228;-71
2023/05/17 00:23:25;;;;;;;0.70;0.70;;;7.90;99.90;;;;;;5053673;28;20201;-72
2023/05/17 00:25:51;;;;;;;0.70;0.70;;;7.80;99.90;;;;;;5065162;28;20647;-72
2023/05/17 00:28:16;;;;;;;0.70;0.70;;;7.60;99.90;;;;;;5073912;28;20200;-72
2023/05/17 00:30:42;;;;;;;0.70;0.70;;;7.50;99.90;;;;;;5073726;28;20221;-72
2023/05/17 00:33:08;;;;;;;0.70;0.70;;;7.30;99.90;;;;;;5074082;28;20725;-72
2023/05/17 00:35:34;;;;;;;0.70;0.70;;;7.10;99.90;;;;;;5073511;28;20222;-72
2023/05/17 00:38:00;;;;;;;0.70;0.70;;;6.90;99.90;;;;;;5073877;28;20196;-71
2023/05/17 00:40:25;;;;;;;0.70;0.70;;;6.80;99.90;;;;;;5073578;28;20269;-72
2023/05/17 00:42:51;;;;;;;0.70;0.70;;;6.60;99.90;;;;;;5073547;28;20247;-71
2023/05/17 00:45:17;;;;;;;0.60;0.60;;;6.40;99.90;;;;;;5073051;28;20201;-71
2023/05/17 00:47:42;;;;;;;1.65;1.55;;;6.40;99.90;;;;;;5073341;28;20196;-71
2023/05/17 00:50:08;;;;;;;0.60;0.60;;;6.30;99.90;;;;;;5045606;28;20280;-72
2023/05/17 00:52:37;;;;;;;0.70;0.70;;;6.30;99.90;;;;;;5053263;28;20189;-71
2023/05/17 00:55:03;;;;;;;0.80;0.80;;;6.20;99.90;;;;;;5052733;28;20657;-72
2023/05/17 00:57:30;;;;;;;0.70;0.70;;;6.20;99.90;;;;;;5053254;28;20197;-71
2023/05/17 00:59:56;;;;;;;0.70;0.70;;;6.10;99.90;;;;;;5053307;28;20190;-71
2023/05/17 01:02:22;;;;;;;0.70;0.70;;;6.00;99.90;;;;;;5052833;28;20216;-71
2023/05/17 01:04:49;;;;;;;0.80;0.80;;;6.00;99.90;;;;;;5053227;28;20205;-71
2023/05/17 01:07:16;;;;;;;0.80;0.80;;;5.90;99.90;;;;;;5052939;28;20235;-71
2023/05/17 01:09:42;;;;;;;0.70;0.70;;;5.80;99.90;;;;;;5052382;28;20189;-72
2023/05/17 01:12:21;;;;;;;0.70;0.70;;;5.80;99.90;;;;;;5035247;28;20258;-71
2023/05/17 01:15:00;;;;;;;0.70;0.70;;;5.80;99.90;;;;;;5053130;28;20247;-71
2023/05/17 01:17:44;;;;;;;0.70;0.70;;;5.70;99.90;;;;;;5052670;28;20197;-71
2023/05/17 01:20:17;;;;;;;0.70;0.70;;;5.70;99.90;;;;;;5052576;28;20190;-71
2023/05/17 01:22:57;;;;;;;0.70;0.70;;;5.60;99.90;;;;;;5068402;28;20274;-72
2023/05/17 01:25:41;;;;;;;0.68;0.68;;;5.40;99.90;;;;;;5072274;28;20280;-72
2023/05/17 01:28:09;;;;;;;0.80;0.80;;;5.30;99.90;;;;;;5073198;28;20185;-71
2023/05/17 01:30:36;;;;;;;1.17;1.13;;;5.20;99.90;;;;;;5072202;28;20687;-72
2023/05/17 01:33:03;;;;;;;0.70;0.70;;;5.10;99.90;;;;;;5072828;28;20596;-71
2023/05/17 01:35:29;;;;;;;0.70;0.70;;;5.00;99.90;;;;;;5072001;28;20193;-70
2023/05/17 01:37:55;;;;;;;0.70;0.70;;;5.00;99.90;;;;;;5051170;28;20723;-72
2023/05/17 01:40:21;;;;;;;0.80;0.80;;;4.90;99.90;;;;;;5059549;28;20213;-72
2023/05/17 01:42:56;;;;;;;0.80;0.80;;;4.80;99.90;;;;;;5072868;28;20207;-71
2023/05/17 01:45:42;;;;;;;0.70;0.70;;;4.80;99.90;;;;;;5051025;28;20212;-72
2023/05/17 01:48:17;;;;;;;0.70;0.70;;;4.70;99.90;;;;;;5052998;28;20182;-72
2023/05/17 01:50:44;;;;;;;0.70;0.70;;;4.70;99.90;;;;;;5054328;28;20198;-73
2023/05/17 01:53:19;;;;;;;0.80;0.80;;;4.60;99.90;;;;;;5072352;28;20192;-71
2023/05/17 01:55:55;;;;;;;0.70;0.70;;;4.50;99.90;;;;;;5072867;28;20196;-72
2023/05/17 01:58:24;;;;;;;0.70;0.70;;;4.50;99.90;;;;;;5072749;28;20227;-71
2023/05/17 02:00:54;;;;;;;0.63;0.63;;;4.40;99.90;;;;;;5071880;28;20205;-72
2023/05/17 02:03:20;;;;;;;0.50;0.50;;;4.40;99.90;;;;;;5072645;28;20252;-71
2023/05/17 02:05:46;;;;;;;0.80;0.80;;;4.40;99.90;;;;;;5054762;28;20279;-72
2023/05/17 02:08:12;;;;;;;0.70;0.70;;;4.30;99.90;;;;;;5076554;28;20223;-71
2023/05/17 02:10:38;;;;;;;0.60;0.60;;;4.30;99.90;;;;;;5076137;28;20221;-72
2023/05/17 02:13:04;;;;;;;0.80;0.80;;;4.30;99.90;;;;;;5076342;28;20635;-71
2023/05/17 02:15:30;;;;;;;0.70;0.70;;;4.30;99.90;;;;;;5076148;28;20200;-71
2023/05/17 02:17:56;;;;;;;0.80;0.80;;;4.30;99.90;;;;;;5075987;28;20201;-71
2023/05/17 02:20:21;;;;;;;0.80;0.80;;;4.20;99.90;;;;;;5058257;28;20201;-71
2023/05/17 02:22:47;;;;;;;0.63;0.63;;;4.20;99.90;;;;;;5076156;28;20213;-71
2023/05/17 02:25:13;;;;;;;0.73;0.73;;;4.20;99.90;;;;;;5076155;28;20192;-72
2023/05/17 02:27:39;;;;;;;0.80;0.80;;;4.20;99.90;;;;;;5075325;28;20645;-71
2023/05/17 02:30:05;;;;;;;0.70;0.70;;;4.20;99.90;;;;;;5076191;28;20723;-72
2023/05/17 02:32:31;;;;;;;0.70;0.70;;;4.20;99.90;;;;;;5075921;28;20272;-71
2023/05/17 02:34:57;;;;;;;0.70;0.70;;;4.20;99.90;;;;;;5076007;28;20193;-72
2023/05/17 02:37:23;;;;;;;0.80;0.80;;;4.20;99.90;;;;;;5075416;28;20205;-72
2023/05/17 02:39:49;;;;;;;0.70;0.70;;;4.10;99.90;;;;;;5076037;28;20189;-72
2023/05/17 02:42:15;;;;;;;0.60;0.60;;;4.10;99.90;;;;;;5075776;28;20227;-72
2023/05/17 02:44:41;;;;;;;0.70;0.70;;;4.10;99.90;;;;;;5075458;28;20660;-71
2023/05/17 02:47:07;;;;;;;0.68;0.68;;;4.10;99.90;;;;;;5057824;28;20279;-71
2023/05/17 02:49:32;;;;;;;0.70;0.70;;;4.10;99.90;;;;;;5075356;28;20185;-72
2023/05/17 02:51:59;;;;;;;0.70;0.70;;;4.10;99.90;;;;;;5075748;28;20541;-71
2023/05/17 02:54:25;;;;;;;0.80;0.80;;;4.10;99.90;;;;;;5075325;28;20185;-72
2023/05/17 02:56:51;;;;;;;0.70;0.70;;;4.10;99.90;;;;;;5075702;28;20201;-71
2023/05/17 02:59:17;;;;;;;0.80;0.80;;;4.10;99.90;;;;;;5075499;28;20200;-71
2023/05/17 03:01:42;;;;;;;0.80;0.80;;;4.10;99.90;;;;;;5066286;28;20212;-72
2023/05/17 03:04:08;;;;;;;0.60;0.60;;;4.20;99.90;;;;;;5075085;28;20274;-71
2023/05/17 03:06:34;;;;;;;0.70;0.70;;;4.20;99.90;;;;;;5074594;28;20200;-72
2023/05/17 03:09:00;;;;;;;0.63;0.63;;;4.20;99.90;;;;;;5075564;28;20189;-71
2023/05/17 03:11:25;;;;;;;0.70;0.70;;;4.20;99.90;;;;;;5075054;28;20196;-71
2023/05/17 03:13:51;;;;;;;0.70;0.70;;;4.30;99.90;;;;;;5075234;28;20205;-71
2023/05/17 03:16:17;;;;;;;0.50;0.50;;;4.30;99.90;;;;;;5075332;28;20196;-71
2023/05/17 03:18:43;;;;;;;0.70;0.70;;;4.40;99.90;;;;;;5074564;28;20606;-71
2023/05/17 03:21:09;;;;;;;0.80;0.80;;;4.40;99.90;;;;;;5075207;28;20185;-72
2023/05/17 03:23:35;;;;;;;0.70;0.70;;;4.40;99.90;;;;;;5074879;28;20719;-71
2023/05/17 03:26:01;;;;;;;0.70;0.70;;;4.40;99.90;;;;;;5075025;28;20268;-71
2023/05/17 03:28:26;;;;;;;0.70;0.70;;;4.40;99.90;;;;;;5056891;28;20285;-72
2023/05/17 03:30:53;;;;;;;0.70;0.70;;;4.50;99.90;;;;;;5074882;28;20220;-71
2023/05/17 03:33:18;;;;;;;0.70;0.70;;;4.50;99.90;;;;;;5074657;28;20212;-70
2023/05/17 03:35:47;;;;;;;0.70;0.70;;;4.50;99.90;;;;;;5056896;28;20201;-71
2023/05/17 03:38:13;;;;;;;0.80;0.80;;;4.50;99.90;;;;;;5074999;28;20196;-71
2023/05/17 03:40:39;;;;;;;0.70;0.70;;;4.50;99.90;;;;;;5074542;28;20682;-71
2023/05/17 03:43:04;;;;;;;0.77;0.77;;;4.40;99.90;;;;;;5056515;28;20237;-71
2023/05/17 03:45:30;;;;;;;0.70;0.70;;;4.50;99.90;;;;;;5073601;28;20252;-71
2023/05/17 03:47:56;;;;;;;0.65;0.65;;;4.50;99.90;;;;;;5074610;28;20238;-71
2023/05/17 03:50:22;;;;;;;0.70;0.70;;;4.50;99.90;;;;;;5074303;28;20664;-72
2023/05/17 03:52:47;;;;;;;0.80;0.80;;;4.40;99.90;;;;;;5074535;28;20214;-71
2023/05/17 03:55:13;;;;;;;0.80;0.80;;;4.40;99.90;;;;;;5074416;28;20676;-71
2023/05/17 03:57:39;;;;;;;0.75;0.75;;;4.40;99.90;;;;;;5074190;28;20207;-71
2023/05/17 04:00:09;;;;;;;0.80;0.80;;;4.30;99.90;;;;;;5056342;28;20193;-71
2023/05/17 04:02:35;;;;;;;0.80;0.80;;;4.30;99.90;;;;;;5073522;28;20327;-71
2023/05/17 04:05:00;;;;;;;0.80;0.80;;;4.20;99.90;;;;;;5073997;28;20632;-71
2023/05/17 04:07:26;;;;;;;0.70;0.70;;;4.20;99.90;;;;;;5073543;28;20189;-71
2023/05/17 04:09:52;;;;;;;0.80;0.80;;;4.20;99.90;;;;;;5073612;28;20189;-71
2023/05/17 04:12:18;;;;;;;0.80;0.80;;;4.20;99.90;;;;;;5073739;28;20200;-71
2023/05/17 04:14:43;;;;;;;0.80;0.80;;;4.20;99.90;;;;;;5073611;28;20648;-71
2023/05/17 04:17:09;;;;;;;0.60;0.60;;;4.20;99.90;;;;;;5073719;28;20280;-70
2023/05/17 04:22:10;;;;;;;0.80;0.80;;;4.10;99.90;;;;;;5255182;23;20229;-90
2023/05/17 04:24:39;;;;;;;0.80;0.80;;;4.20;99.90;;;;;;5040124;28;20562;-89
2023/05/17 04:27:10;;;;;;;0.75;0.75;;;4.20;99.90;;;;;;5040948;28;20224;-91
2023/05/17 04:29:40;;;;;;;0.73;0.73;;;4.10;99.90;;;;;;5039376;28;20613;-91
2023/05/17 04:32:07;;;;;;;0.80;0.80;;;4.20;99.90;;;;;;5039863;28;20244;-90
2023/05/17 04:34:33;;;;;;;0.70;0.70;;;4.20;99.90;;;;;;5039594;28;20284;-91
2023/05/17 04:36:59;;;;;;;0.60;0.60;;;4.20;99.90;;;;;;5039756;28;20232;-91
2023/05/17 04:39:25;;;;;;;0.60;0.60;;;4.20;99.90;;;;;;5040841;28;20197;-91
2023/05/17 04:41:51;;;;;;;0.75;0.75;;;4.30;99.90;;;;;;5040203;28;20213;-90
2023/05/17 04:44:17;;;;;;;0.60;0.60;;;4.30;99.90;;;;;;5057835;28;20190;-91
2023/05/17 04:47:54;;;;;;;0.68;0.68;;;4.30;99.90;;;;;;5041253;28;20186;-91
2023/05/17 04:50:21;;;;;;;0.70;0.70;;;4.30;99.90;;;;;;5024276;28;20201;-91
2023/05/17 04:52:50;;;;;;;0.70;0.70;;;4.30;99.90;;;;;;5040431;28;20691;-91
2023/05/17 04:55:16;;;;;;;0.65;0.65;;;4.40;99.90;;;;;;5057830;28;20196;-91
2023/05/17 04:57:42;;;;;;;0.80;0.80;;;4.50;99.90;;;;;;5040347;28;20194;-91
2023/05/17 05:00:11;;;;;;;0.70;0.70;;;4.50;99.90;;;;;;5039117;28;20201;-92
2023/05/17 05:02:37;;;;;;;0.70;0.70;;;4.50;99.90;;;;;;5039395;28;20205;-91
2023/05/17 05:05:05;;;;;;;0.80;0.80;;;4.50;99.90;;;;;;5039375;28;20700;-90
2023/05/17 05:07:32;;;;;;;0.70;0.70;;;4.50;99.90;;;;;;5039055;28;20194;-92
2023/05/17 05:09:57;;;;;;;0.70;0.70;;;4.60;99.90;;;;;;5056851;28;20288;-92
2023/05/17 05:12:24;;;;;;;0.70;0.70;;;4.60;99.90;;;;;;5039290;28;20229;-90
2023/05/17 05:14:50;;;;;;;0.60;0.60;;;4.50;99.90;;;;;;5040010;28;20605;-92
2023/05/17 05:17:24;;;;;;;0.70;0.70;;;4.50;99.90;;;;;;5057715;28;20214;-91
2023/05/17 05:19:50;;;;;;;0.80;0.80;;;4.40;99.90;;;;;;5040123;28;20212;-93
2023/05/17 05:23:25;;;;;;;0.70;0.70;;;4.40;99.90;;;;;;5039278;28;20230;-90
2023/05/17 05:26:06;;;;;;;0.70;0.70;;;4.30;99.90;;;;;;5039292;28;20610;-91
2023/05/17 05:28:42;;;;;;;0.70;0.70;;;4.30;99.90;;;;;;5039640;28;20201;-90
2023/05/17 05:31:41;;;;;;;0.70;0.70;;;4.30;99.90;;;;;;5038930;28;20193;-92
2023/05/17 05:40:50;;;;;;;;;;;;;;;;;;;;;
2023/05/17 05:43:41;;;;;;;0.77;0.77;;;4.10;99.90;;;;;;5037047;28;20288;-90
2023/05/17 05:46:07;;;;;;;0.70;0.70;;;4.20;99.90;;;;;;5043128;28;20233;-90
2023/05/17 05:48:32;;;;;;;0.70;0.70;;;4.10;99.90;;;;;;5042118;28;20201;-90
2023/05/17 05:50:58;;;;;;;0.80;0.80;;;4.10;99.90;;;;;;5042058;28;20220;-90
2023/05/17 05:53:27;;;;;;;0.68;0.68;;;4.10;99.90;;;;;;5041962;28;20280;-89
2023/05/17 05:55:56;;;;;;;0.70;0.70;;;4.10;99.90;;;;;;5041379;28;20255;-90
2023/05/17 05:58:22;;;;;;;0.70;0.70;;;4.20;99.90;;;;;;5042036;28;20563;-91
2023/05/17 06:00:48;;;;;;;0.80;0.80;;;4.30;99.90;;;;;;5042356;28;20194;-89
2023/05/17 06:03:14;;;;;;;0.70;0.70;;;4.30;99.90;;;;;;5041732;28;20679;-88
2023/05/17 06:05:40;;;;;;;0.80;0.80;;;4.30;99.90;;;;;;5041777;28;20202;-90
2023/05/17 06:08:06;;;;;;;0.60;0.60;;;4.30;99.90;;;;;;5041518;28;20668;-90
2023/05/17 06:10:32;;;;;;;0.70;0.70;;;4.30;99.90;;;;;;5041582;28;20197;-91
2023/05/17 06:12:58;;;;;;;0.60;0.60;;;4.40;99.90;;;;;;5042068;28;20540;-90
2023/05/17 06:15:28;;;;;;;0.80;0.80;;;4.30;99.90;;;;;;5042141;28;20204;-91
2023/05/17 06:17:53;;;;;;;0.80;0.80;;;4.20;99.90;;;;;;5041696;28;20231;-92
2023/05/17 06:20:27;;;;;;;0.70;0.70;;;4.30;99.90;;;;;;5040949;28;20203;-90
2023/05/17 06:23:05;;;;;;;0.70;0.70;;;4.30;99.90;;;;;;5023341;28;20296;-91
2023/05/17 06:25:30;;;;;;;0.70;0.70;;;4.40;99.90;;;;;;5021207;28;20411;-91
2023/05/17 06:27:56;;;;;;;0.80;0.80;;;4.50;99.90;;;;;;5021667;28;20198;-91
2023/05/17 06:30:22;;;;;;;0.70;0.70;;;4.50;99.90;;;;;;5021973;28;20193;-90
2023/05/17 06:32:48;;;;;;;0.75;0.75;;;4.50;99.90;;;;;;5040311;28;20269;-92
2023/05/17 06:35:14;;;;;;;0.77;0.77;;;4.50;99.90;;;;;;5022644;28;20202;-92
2023/05/17 06:37:40;;;;;;;0.70;0.70;;;4.50;99.90;;;;;;5039895;28;20202;-91
2023/05/17 06:40:07;;;;;;;0.70;0.70;;;4.50;99.90;;;;;;5038941;28;20283;-91
2023/05/17 06:42:33;;;;;;;0.75;0.75;;;4.60;99.90;;;;;;5030800;28;20216;-91
2023/05/17 06:44:59;;;;;;;0.73;0.73;;;4.60;99.90;;;;;;5041595;28;20194;-91
2023/05/17 06:47:33;;;;;;;0.80;0.80;;;4.70;99.90;;;;;;5041261;28;20553;-94
2023/05/17 06:49:59;;;;;;;0.70;0.70;;;4.80;99.90;;;;;;5041509;28;20233;-93
2023/05/17 06:52:25;;;;;;;0.70;0.70;;;5.00;99.90;;;;;;5040867;28;20200;-92
2023/05/17 06:54:51;;;;;;;0.70;0.70;;;5.20;99.90;;;;;;5042897;28;20224;-93
2023/05/17 06:57:17;;;;;;;0.77;0.77;;;5.30;99.90;;;;;;5042557;28;20200;-95
2023/05/17 06:59:43;;;;;;;0.70;0.70;;;5.50;99.90;;;;;;5042128;28;20228;-94
2023/05/17 07:02:08;;;;;;;0.60;0.60;;;5.60;99.90;;;;;;5042001;28;20606;-91
2023/05/17 07:04:34;;;;;;;0.70;0.70;;;5.70;99.90;;;;;;5042171;28;20203;-93
2023/05/17 07:07:00;;;;;;;0.70;0.70;;;5.80;99.90;;;;;;5042180;28;20194;-91
2023/05/17 07:09:26;;;;;;;0.73;0.73;;;5.90;99.90;;;;;;5041953;28;20204;-91
2023/05/17 07:11:52;;;;;;;0.70;0.70;;;6.00;99.90;;;;;;5041736;28;20280;-94
2023/05/17 07:14:21;;;;;;;0.70;0.70;;;6.00;99.90;;;;;;5041414;28;20221;-91
2023/05/17 07:16:56;;;;;;;0.80;0.80;;;6.10;99.90;;;;;;5040891;28;20664;-92
2023/05/17 07:19:30;;;;;;;0.80;0.80;;;6.10;99.90;;;;;;5041258;28;20201;-91
2023/05/17 07:21:59;;;;;;;0.80;0.80;;;6.10;99.90;;;;;;5041475;28;20229;-91
2023/05/17 07:24:25;;;;;;;0.70;0.70;;;6.10;99.90;;;;;;5042024;28;20390;-92
2023/05/17 07:26:51;;;;;;;0.70;0.70;;;6.20;99.90;;;;;;5042437;28;20220;-92
2023/05/17 07:29:17;;;;;;;0.70;0.70;;;6.10;99.90;;;;;;5046598;28;20209;-92
2023/05/17 07:31:42;;;;;;;0.70;0.70;;;6.20;99.90;;;;;;5058956;28;20181;-92
2023/05/17 07:34:08;;;;;;;0.60;0.60;;;6.30;99.90;;;;;;5058055;28;20193;-91
2023/05/17 07:36:34;;;;;;;0.68;0.68;;;6.30;99.90;;;;;;5057772;28;20220;-92
2023/05/17 07:39:00;;;;;;;0.70;0.70;;;6.50;99.90;;;;;;5051185;28;20196;-92
2023/05/17 07:41:34;;;;;;;0.60;0.60;;;6.60;99.90;;;;;;5042676;28;20228;-94
2023/05/17 07:43:59;;;;;;;0.70;0.70;;;6.60;99.90;;;;;;5042509;28;20487;-94
2023/05/17 07:46:25;;;;;;;0.60;0.60;;;6.70;99.90;;;;;;5042184;28;20250;-92
2023/05/17 07:48:51;;;;;;;0.70;0.70;;;6.80;99.90;;;;;;5041863;28;20240;-93
2023/05/17 07:51:28;;;;;;;0.70;0.70;;;6.70;99.90;;;;;;5040402;28;20201;-93
2023/05/17 07:54:27;;;;;;;0.80;0.80;;;6.70;99.90;;;;;;5041771;28;20192;-92
2023/05/17 07:56:54;;;;;;;0.70;0.70;;;6.70;99.90;;;;;;5040000;28;20209;-90
2023/05/17 07:59:21;;;;;;;0.60;0.60;;;6.70;99.90;;;;;;5041007;28;20328;-87
2023/05/17 08:01:47;;;;;;;0.70;0.70;;;6.70;99.90;;;;;;5040859;28;20202;-93
2023/05/17 08:04:15;;;;;;;0.60;0.60;;;6.80;99.90;;;;;;5041213;28;20197;-90
2023/05/17 08:06:44;;;;;;;0.70;0.70;;;6.90;99.90;;;;;;5041274;28;20252;-90
2023/05/17 08:09:10;;;;;;;0.70;0.70;;;7.00;99.90;;;;;;5040110;28;20221;-90
2023/05/17 08:11:36;;;;;;;1.35;1.25;;;7.10;99.90;;;;;;5040003;28;20235;-89
2023/05/17 08:14:02;;;;;;;0.60;0.60;;;7.30;99.90;;;;;;5058079;28;20189;-90
2023/05/17 08:16:28;;;;;;;0.70;0.70;;;7.40;99.90;;;;;;5039651;28;20194;-89
2023/05/17 08:18:54;;;;;;;0.60;0.60;;;7.40;99.90;;;;;;5039884;28;20193;-89
2023/05/17 08:21:23;;;;;;;0.70;0.70;;;7.40;99.90;;;;;;5057400;28;20189;-89
2023/05/17 08:23:49;;;;;;;0.68;0.68;;;7.50;99.90;;;;;;5036997;28;20230;-89
2023/05/17 08:26:16;;;;;;;0.65;0.65;;;7.60;99.90;;;;;;5037512;28;20795;-90
2023/05/17 08:28:42;;;;;;;0.70;0.70;;;7.60;99.90;;;;;;5036458;28;20279;-90
2023/05/17 08:31:07;;;;;;;0.70;0.70;;;7.80;99.90;;;;;;5036462;28;20272;-90
2023/05/17 08:33:36;;;;;;;0.70;0.70;;;7.80;99.90;;;;;;5036673;28;20203;-91
2023/05/17 08:36:06;;;;;;;0.70;0.70;;;7.90;99.90;;;;;;5039525;28;20198;-92
2023/05/17 08:38:33;;;;;;;0.65;0.65;;;8.10;99.90;;;;;;5036387;28;20210;-90
2023/05/17 08:41:00;;;;;;;0.70;0.70;;;8.40;99.90;;;;;;5039578;28;20198;-91
2023/05/17 08:43:27;;;;;;;0.70;0.70;;;8.60;99.90;;;;;;5035470;28;20241;-92
2023/05/17 08:46:15;;;;;;;0.70;0.70;;;8.70;99.90;;;;;;5017671;28;20198;-91
2023/05/17 08:48:43;;;;;;;0.60;0.60;;;8.80;99.90;;;;;;5017504;28;20191;-89
2023/05/17 08:51:10;;;;;;;0.60;0.60;;;9.10;99.90;;;;;;5017918;28;20206;-89
2023/05/17 08:53:37;;;;;;;0.70;0.70;;;9.30;99.90;;;;;;5024514;28;20256;-91
2023/05/17 08:56:10;;;;;;;0.60;0.60;;;9.50;99.90;;;;;;5037024;28;20539;-91
2023/05/17 08:58:37;;;;;;;0.70;0.70;;;9.50;99.90;;;;;;5036264;28;20298;-90
2023/05/17 09:01:06;;;;;;;0.60;0.60;;;9.50;99.90;;;;;;5037948;28;20198;-91
2023/05/17 09:03:35;;;;;;;0.50;0.50;;;9.70;99.90;;;;;;5037254;28;20213;-90
2023/05/17 09:06:02;;;;;;;0.50;0.50;;;10.00;99.90;;;;;;5038668;28;20248;-92
2023/05/17 09:08:29;;;;;;;0.60;0.60;;;10.00;99.90;;;;;;5037094;28;20190;-92
2023/05/17 09:10:58;;;;;;;0.60;0.60;;;10.30;99.90;;;;;;5035798;28;20571;-89
2023/05/17 09:13:25;;;;;;;0.60;0.60;;;10.40;99.90;;;;;;5035291;28;20225;-91
2023/05/17 09:15:53;;;;;;;0.60;0.60;;;10.60;99.90;;;;;;5035816;28;20202;-91
2023/05/17 09:18:18;;;;;;;0.60;0.60;;;10.50;99.90;;;;;;5035296;28;20202;-89
2023/05/17 09:20:50;;;;;;;0.60;0.60;;;10.50;99.90;;;;;;5035462;28;20206;-91
2023/05/17 09:23:20;;;;;;;0.60;0.60;;;10.40;99.90;;;;;;5040505;28;20271;-89
2023/05/17 09:26:08;;;;;;;0.50;0.50;;;10.30;99.90;;;;;;5035489;28;20275;-88
2023/05/17 09:28:43;;;;;;;0.50;0.50;;;10.50;99.90;;;;;;5034805;28;20239;-89
2023/05/17 09:31:21;;;;;;;0.50;0.50;;;10.70;99.90;;;;;;5048063;28;20193;-88
2023/05/17 09:33:51;;;;;;;0.60;0.60;;;10.90;99.90;;;;;;5035728;28;20205;-89
2023/05/17 09:36:21;;;;;;;0.50;0.50;;;11.00;99.90;;;;;;5018501;28;20314;-90
2023/05/17 09:38:59;;;;;;;0.60;0.60;;;11.30;99.90;;;;;;5035134;28;20200;-90
2023/05/17 09:41:39;;;;;;;0.60;0.60;;;11.50;99.90;;;;;;5034471;28;20672;-89
2023/05/17 09:44:09;;;;;;;0.50;0.50;;;11.50;99.90;;;;;;5034369;28;20637;-90
2023/05/17 09:46:40;;;;;;;0.85;0.80;;;11.70;99.90;;;;;;5035456;28;20679;-89
2023/05/17 09:49:09;;;;;;;0.50;0.50;;;12.30;99.90;;;;;;5034919;28;20660;-89
2023/05/17 09:51:38;;;;;;;0.50;0.50;;;12.60;99.90;;;;;;5034479;28;20204;-89
2023/05/17 09:54:09;;;;;;;0.50;0.50;;;13.00;99.90;;;;;;5034865;28;20619;-90
2023/05/17 09:56:35;;;;;;;0.50;0.50;;;13.10;99.90;;;;;;5034703;28;20217;-90
2023/05/17 09:59:02;;;;;;;0.52;0.52;;;13.00;99.90;;;;;;5034556;28;20201;-88
2023/05/17 10:01:30;;;;;;;0.50;0.50;;;12.60;99.90;;;;;;5034332;28;20197;-89
2023/05/17 10:04:00;;;;;;;0.50;0.50;;;12.50;99.90;;;;;;5034709;28;20244;-89
2023/05/17 10:06:29;;;;;;;0.50;0.50;;;12.30;99.90;;;;;;5034240;28;20204;-90
2023/05/17 10:08:57;;;;;;;0.60;0.60;;;12.00;99.90;;;;;;5034745;28;20281;-89
2023/05/17 10:11:32;;;;;;;0.60;0.60;;;11.80;99.90;;;;;;5034154;28;20202;-90
2023/05/17 10:14:04;;;;;;;0.50;0.50;;;11.90;99.90;;;;;;5052634;28;20660;-90
2023/05/17 10:16:33;;;;;;;0.60;0.60;;;11.90;99.90;;;;;;5034532;28;20200;-91
2023/05/17 10:19:01;;;;;;;0.50;0.50;;;11.80;99.90;;;;;;5035250;28;20229;-93
2023/05/17 10:21:30;;;;;;;0.60;0.60;;;11.80;99.90;;;;;;5035053;28;20202;-91
2023/05/17 10:24:00;;;;;;;0.52;0.52;;;11.80;99.90;;;;;;5034698;28;20237;-90
2023/05/17 10:26:27;;;;;;;0.50;0.50;;;11.90;99.90;;;;;;5052096;28;20194;-90
2023/05/17 10:29:00;;;;;;;0.40;0.40;;;12.10;99.90;;;;;;5024899;28;20197;-90
2023/05/17 10:31:36;;;;;;;0.50;0.50;;;12.30;99.90;;;;;;5054752;28;20229;-90
2023/05/17 10:34:05;;;;;;;0.50;0.50;;;12.50;99.90;;;;;;5055166;28;20549;-90
2023/05/17 10:36:31;;;;;;;0.50;0.50;;;12.40;99.90;;;;;;5054430;28;20196;-90
2023/05/17 10:38:58;;;;;;;0.50;0.50;;;12.30;99.90;;;;;;5055990;28;20193;-89
2023/05/17 10:41:29;;;;;;;0.40;0.40;;;12.20;99.90;;;;;;5054477;28;20253;-91
2023/05/17 10:44:00;;;;;;;0.50;0.50;;;12.20;99.90;;;;;;5052353;28;20197;-91
2023/05/17 10:46:29;;;;;;;0.50;0.50;;;12.20;99.90;;;;;;5037979;28;20201;-91
2023/05/17 10:49:06;;;;;;;0.50;0.50;;;12.20;99.90;;;;;;5037999;28;20205;-90
2023/05/17 10:51:35;;;;;;;0.60;0.60;;;12.40;99.90;;;;;;5037940;28;20209;-89
2023/05/17 10:54:17;;;;;;;0.60;0.60;;;12.60;99.90;;;;;;5037878;28;20194;-90
2023/05/17 10:56:55;;;;;;;0.50;0.50;;;12.90;99.90;;;;;;5037953;28;20197;-90
2023/05/17 10:59:23;;;;;;;0.50;0.50;;;13.10;99.90;;;;;;5037634;28;20540;-89
2023/05/17 11:01:58;;;;;;;0.40;0.40;;;13.30;99.90;;;;;;5037413;28;20215;-90
2023/05/17 11:04:27;;;;;;;0.40;0.40;;;13.60;99.90;;;;;;5018258;28;20197;-90
2023/05/17 11:07:13;;;;;;;0.40;0.40;;;13.60;99.90;;;;;;5017556;28;20662;-85
2023/05/17 11:09:48;;;;;;;0.50;0.50;;;13.40;99.90;;;;;;4999882;28;20649;-88
2023/05/17 11:12:14;;;;;;;0.50;0.50;;;13.40;99.90;;;;;;5017634;28;20201;-90
2023/05/17 11:14:47;;;;;;;0.50;0.50;;;13.20;99.90;;;;;;5018325;28;20251;-92
2023/05/17 11:17:17;;;;;;;0.50;0.50;;;13.00;99.90;;;;;;5018622;28;20285;-91
2023/05/17 11:20:09;;;;;;;0.50;0.50;;;12.90;99.90;;;;;;5017830;28;20229;-91
2023/05/17 11:23:03;;;;;;;0.50;0.50;;;13.00;99.90;;;;;;5017625;28;20233;-90
2023/05/17 11:25:35;;;;;;;0.50;0.50;;;13.40;99.90;;;;;;4982717;28;20216;-91
2023/05/17 11:28:06;;;;;;;0.50;0.50;;;14.00;99.90;;;;;;5019164;28;20248;-91
2023/05/17 11:30:32;;;;;;;0.40;0.40;;;14.00;99.90;;;;;;5052542;28;20617;-91
2023/05/17 11:33:05;;;;;;;0.40;0.40;;;14.10;99.90;;;;;;5053950;28;20201;-90
2023/05/17 11:35:35;;;;;;;0.50;0.50;;;14.20;99.90;;;;;;5054024;28;20197;-90
2023/05/17 11:38:20;;;;;;;0.40;0.40;;;14.30;99.90;;;;;;5053470;28;20540;-89
2023/05/17 11:40:48;;;;;;;0.40;0.40;;;14.80;99.90;;;;;;5053897;28;20204;-90
2023/05/17 11:43:29;;;;;;;0.40;0.40;;;15.80;99.70;;;;;;5043315;28;20217;-90
2023/05/17 11:45:57;;;;;;;0.40;0.40;;;16.20;99.90;;;;;;5054936;28;20825;-89
2023/05/17 11:48:25;;;;;;;0.40;0.40;;;16.00;98.80;;;;;;5036678;28;20725;-88
2023/05/17 11:50:52;;;;;;;0.40;0.40;;;16.10;96.70;;;;;;5037164;28;20198;-88
2023/05/17 11:53:19;;;;;;;0.40;0.40;;;15.40;96.80;;;;;;5036260;28;20208;-88
2023/05/17 11:55:46;;;;;;;0.40;0.40;;;15.30;97.50;;;;;;5036498;28;20205;-89
2023/05/17 11:58:15;;;;;;;0.30;0.30;;;15.00;96.90;;;;;;5054169;28;20679;-89
2023/05/17 12:00:42;;;;;;;0.40;0.40;;;14.80;99.20;;;;;;5036492;28;20738;-88
2023/05/17 12:03:19;;;;;;;0.40;0.40;;;14.50;98.10;;;;;;5036460;28;20248;-89
2023/05/17 12:05:47;;;;;;;0.40;0.40;;;14.20;97.20;;;;;;5036571;28;20217;-88
2023/05/17 12:08:19;;;;;;;0.50;0.50;;;14.20;98.30;;;;;;5036765;28;20193;-89
2023/05/17 12:10:51;;;;;;;0.40;0.40;;;14.10;98.60;;;;;;5036638;28;20189;-89
2023/05/17 12:13:18;;;;;;;0.40;0.40;;;14.60;99.30;;;;;;5054521;28;20657;-88
2023/05/17 12:15:56;;;;;;;1.60;0.82;;;14.80;96.60;;;;;;5036258;28;20202;-88
2023/05/17 12:18:22;;;;;;;0.40;0.40;;;15.00;96.80;;;;;;5053489;28;20209;-88
2023/05/17 12:20:59;;;;;;;0.57;0.57;;;14.80;95.30;;;;;;5035731;28;20283;-88
2023/05/17 12:23:27;;;;;;;0.40;0.40;;;14.90;96.90;;;;;;5035308;28;20294;-88
2023/05/17 12:26:11;;;;;;;0.40;0.40;;;14.80;96.00;;;;;;5044014;28;20206;-88
2023/05/17 12:28:59;;;;;;;0.40;0.40;;;14.90;96.30;;;;;;5053865;28;20194;-89
2023/05/17 12:31:38;;;;;;;0.40;0.40;;;15.00;95.00;;;;;;5053521;28;20216;-88
2023/05/17 12:34:08;;;;;;;1.23;1.10;;;15.00;95.20;;;;;;5052503;28;20197;-90
2023/05/17 12:36:36;;;;;;;0.32;0.32;;;15.20;96.40;;;;;;5052099;28;20194;-88
2023/05/17 12:39:05;;;;;;;0.40;0.40;;;15.40;95.00;;;;;;5052737;28;20189;-88
2023/05/17 12:41:31;;;;;;;0.40;0.40;;;15.20;94.70;;;;;;5053395;28;20671;-88
2023/05/17 12:43:57;;;;;;;0.40;0.40;;;15.00;95.10;;;;;;5049644;28;20723;-90
2023/05/17 12:46:23;;;;;;;0.40;0.40;;;14.40;94.20;;;;;;5035836;28;20296;-90
2023/05/17 12:48:50;;;;;;;0.40;0.40;;;14.00;96.70;;;;;;5056082;28;20189;-90
2023/05/17 12:51:20;;;;;;;0.40;0.40;;;13.60;99.20;;;;;;5035827;28;20201;-93
2023/05/17 12:53:56;;;;;;;0.47;0.47;;;13.70;98.10;;;;;;5036461;28;20201;-89
2023/05/17 12:56:29;;;;;;;0.40;0.40;;;13.90;98.00;;;;;;5035021;28;20724;-88
2023/05/17 12:59:19;;;;;;;0.40;0.40;;;14.10;98.40;;;;;;5035491;28;20205;-89
2023/05/17 13:02:01;;;;;;;0.50;0.50;;;14.10;95.60;;;;;;5035384;28;20204;-90
2023/05/17 13:04:30;;;;;;;0.50;0.50;;;14.00;95.80;;;;;;5035138;28;20243;-87
2023/05/17 13:07:02;;;;;;;0.40;0.40;;;13.90;94.70;;;;;;5034961;28;20557;-86
2023/05/17 13:09:31;;;;;;;0.40;0.40;;;13.90;94.50;;;;;;5034575;28;20197;-87
2023/05/17 13:11:59;;;;;;;0.40;0.40;;;14.10;95.40;;;;;;5035273;28;20672;-89
2023/05/17 13:14:40;;;;;;;0.60;0.60;;;14.40;95.10;;;;;;5035097;28;20197;-88
2023/05/17 13:17:26;;;;;;;0.40;0.40;;;14.50;96.10;;;;;;5052834;28;20285;-88